Time;durP1;ratioP1;P1;durP2;ratioP2;P2;SDS_P1;SDS_P2;PMS_P1;PMS_P2;Temp;Humidity;BMP_temperature;BMP_pressure;BME280_temperature;BME280_humidity;BME280_pressure;Samples;Min_cycle;Max_cycle;Signal;HPM_P1;HPM_P2
2023/08/11 00:00:24;;;;;;;5.03;4.28;;;;;;;;;;2072012;28;20116;-92
2023/08/11 00:01:25;;;;;;;5.63;3.95;;;;;;;;;;2072269;28;20418;-93
2023/08/11 00:02:25;;;;;;;5.15;4.55;;;;;;;;;;2071896;28;20032;-94
2023/08/11 00:03:26;;;;;;;4.75;4.25;;;;;;;;;;2063956;28;20026;-94
2023/08/11 00:04:26;;;;;;;4.63;4.07;;;;;;;;;;2064162;28;20049;-93
2023/08/11 00:05:28;;;;;;;7.45;4.43;;;;;;;;;;2072172;28;20525;-92
2023/08/11 00:06:30;;;;;;;5.70;4.25;;;;;;;;;;2071948;28;20057;-94
2023/08/11 00:07:31;;;;;;;4.78;4.20;;;;;;;;;;2073207;28;20501;-93
2023/08/11 00:08:31;;;;;;;5.22;4.70;;;;;;;;;;2087097;28;20076;-94
2023/08/11 00:09:32;;;;;;;4.90;4.20;;;;;;;;;;2077630;28;20073;-94
2023/08/11 00:10:35;;;;;;;5.40;4.33;;;;;;;;;;1722735;28;10002780;-96
2023/08/11 00:11:35;;;;;;;6.53;4.35;;;;;;;;;;2073669;28;20382;-94
2023/08/11 00:12:36;;;;;;;6.70;4.80;;;;;;;;;;2074076;28;20033;-93
2023/08/11 00:13:36;;;;;;;5.78;4.60;;;;;;;;;;2081988;28;20040;-93
2023/08/11 00:14:37;;;;;;;4.97;4.20;;;;;;;;;;2073604;28;20052;-94
2023/08/11 00:15:39;;;;;;;5.25;4.20;;;;;;;;;;2065449;28;20092;-93
2023/08/11 00:16:40;;;;;;;5.00;4.25;;;;;;;;;;2073940;28;20029;-93
2023/08/11 00:17:40;;;;;;;7.88;4.35;;;;;;;;;;2073514;28;20072;-93
2023/08/11 00:18:41;;;;;;;5.63;4.82;;;;;;;;;;2073741;28;20100;-94
2023/08/11 00:19:41;;;;;;;4.63;4.07;;;;;;;;;;2073656;28;20079;-93
2023/08/11 00:20:42;;;;;;;4.55;3.92;;;;;;;;;;2073518;28;20433;-94
2023/08/11 00:21:42;;;;;;;5.35;4.15;;;;;;;;;;2073287;28;20160;-94
2023/08/11 00:22:43;;;;;;;4.70;4.20;;;;;;;;;;2073678;28;20036;-93
2023/08/11 00:23:43;;;;;;;6.22;4.30;;;;;;;;;;2073562;28;20030;-94
2023/08/11 00:24:44;;;;;;;5.32;4.18;;;;;;;;;;2073627;28;20037;-91
2023/08/11 00:25:44;;;;;;;5.45;4.68;;;;;;;;;;2073629;28;20128;-93
2023/08/11 00:26:45;;;;;;;5.68;3.92;;;;;;;;;;2065390;28;20066;-93
2023/08/11 00:27:45;;;;;;;5.55;4.15;;;;;;;;;;2073690;28;20566;-93
2023/08/11 00:28:46;;;;;;;5.22;4.45;;;;;;;;;;2081819;28;20029;-93
2023/08/11 00:29:47;;;;;;;4.63;4.13;;;;;;;;;;2082394;28;20036;-94
2023/08/11 00:30:49;;;;;;;5.05;3.90;;;;;;;;;;2082366;28;20449;-94
2023/08/11 00:31:49;;;;;;;5.95;4.50;;;;;;;;;;2081577;28;20539;-94
2023/08/11 00:32:50;;;;;;;5.45;4.05;;;;;;;;;;2073520;28;20049;-93
2023/08/11 00:33:51;;;;;;;4.75;4.00;;;;;;;;;;2073479;28;20087;-93
2023/08/11 00:34:52;;;;;;;4.88;4.20;;;;;;;;;;2073550;28;20076;-93
2023/08/11 00:35:52;;;;;;;4.82;4.10;;;;;;;;;;2073310;28;20069;-94
2023/08/11 00:36:55;;;;;;;4.97;4.47;;;;;;;;;;2073544;28;20022;-93
2023/08/11 00:37:55;;;;;;;5.72;4.20;;;;;;;;;;2074017;28;20112;-93
2023/08/11 00:39:00;;;;;;;5.43;4.53;;;;;;;;;;2074862;28;20029;-93
2023/08/11 00:40:00;;;;;;;5.25;4.40;;;;;;;;;;2074917;28;20021;-94
2023/08/11 00:41:01;;;;;;;5.80;4.72;;;;;;;;;;2074866;28;20018;-93
2023/08/11 00:42:03;;;;;;;5.18;4.65;;;;;;;;;;2073796;28;20034;-95
2023/08/11 00:43:04;;;;;;;5.78;4.88;;;;;;;;;;2082551;28;20494;-93
2023/08/11 00:44:04;;;;;;;4.47;4.05;;;;;;;;;;2091477;28;20089;-93
2023/08/11 00:45:06;;;;;;;4.82;4.10;;;;;;;;;;2091144;28;20006;-92
2023/08/11 00:46:11;;;;;;;5.35;4.20;;;;;;;;;;2080180;28;20032;-93
2023/08/11 00:47:11;;;;;;;4.67;3.86;;;;;;;;;;1719920;28;10243843;-93
2023/08/11 00:48:12;;;;;;;5.78;4.20;;;;;;;;;;2075171;28;20017;-94
2023/08/11 00:49:14;;;;;;;5.45;4.30;;;;;;;;;;2065694;28;20026;-93
2023/08/11 00:50:17;;;;;;;5.10;4.60;;;;;;;;;;2074279;28;20021;-92
2023/08/11 00:51:22;;;;;;;5.15;4.55;;;;;;;;;;2082125;28;20025;-94
2023/08/11 00:52:22;;;;;;;7.07;4.10;;;;;;;;;;2088330;28;20006;-91
2023/08/11 00:53:25;;;;;;;4.63;4.00;;;;;;;;;;2082495;28;20045;-91
2023/08/11 00:54:27;;;;;;;4.95;4.20;;;;;;;;;;2074856;28;20053;-91
2023/08/11 00:55:28;;;;;;;4.60;4.07;;;;;;;;;;2082388;28;20022;-91
2023/08/11 00:56:29;;;;;;;4.63;4.05;;;;;;;;;;2087924;28;20153;-92
2023/08/11 00:57:31;;;;;;;5.95;4.07;;;;;;;;;;2075204;28;20389;-92
2023/08/11 00:58:32;;;;;;;5.03;4.10;;;;;;;;;;2079599;28;20013;-92
2023/08/11 01:00:47;;;;;;;6.40;4.32;;;;;;;;;;2278013;23;20131;-96
2023/08/11 01:01:48;;;;;;;4.28;3.88;;;;;;;;;;2100698;28;20028;-93
2023/08/11 01:02:48;;;;;;;4.38;3.97;;;;;;;;;;2097675;28;20032;-91
2023/08/11 01:03:50;;;;;;;5.25;4.15;;;;;;;;;;2090683;28;20035;-92
2023/08/11 01:04:50;;;;;;;4.32;3.92;;;;;;;;;;2081877;28;20032;-92
2023/08/11 01:06:05;;;;;;;7.25;4.00;;;;;;;;;;2082082;28;20033;-92
2023/08/11 01:07:34;;;;;;;4.75;4.28;;;;;;;;;;2088146;28;20218;-93
2023/08/11 01:08:49;;;;;;;4.25;3.85;;;;;;;;;;2085793;28;20028;-94
2023/08/11 01:10:15;;;;;;;4.93;4.07;;;;;;;;;;2090719;28;20044;-93
2023/08/11 01:11:25;;;;;;;5.50;4.03;;;;;;;;;;2057263;28;20073;-94
2023/08/11 01:12:46;;;;;;;4.40;3.90;;;;;;;;;;2083018;28;20025;-93
2023/08/11 01:13:53;;;;;;;3.95;3.55;;;;;;;;;;2090135;28;20090;-94
2023/08/11 01:14:59;;;;;;;4.10;3.70;;;;;;;;;;2089926;28;20025;-94
2023/08/11 01:16:01;;;;;;;5.00;3.80;;;;;;;;;;2089044;28;20028;-94
2023/08/11 01:17:04;;;;;;;4.30;3.90;;;;;;;;;;2073883;28;20018;-94
2023/08/11 01:18:06;;;;;;;4.30;3.58;;;;;;;;;;2081856;28;20055;-94
2023/08/11 01:19:10;;;;;;;5.45;3.80;;;;;;;;;;2089617;28;20078;-94
2023/08/11 01:20:11;;;;;;;5.32;3.90;;;;;;;;;;2090026;28;20075;-93
2023/08/11 01:21:14;;;;;;;4.07;3.63;;;;;;;;;;2081670;28;20021;-94
2023/08/11 01:22:16;;;;;;;4.80;3.53;;;;;;;;;;2081552;28;20429;-94
2023/08/11 01:29:13;;;;;;;4.55;3.78;;;;;;;;;;2090449;28;20033;-94
2023/08/11 01:30:14;;;;;;;4.55;3.53;;;;;;;;;;2090436;28;20025;-92
2023/08/11 01:31:15;;;;;;;6.15;4.18;;;;;;;;;;2089816;28;20546;-94
2023/08/11 01:32:15;;;;;;;4.00;3.60;;;;;;;;;;2089546;28;20178;-94
2023/08/11 01:33:15;;;;;;;4.28;3.78;;;;;;;;;;2081389;28;20522;-93
2023/08/11 01:34:16;;;;;;;4.38;3.72;;;;;;;;;;2073430;28;20474;-95
2023/08/11 01:35:21;;;;;;;4.20;3.58;;;;;;;;;;1836727;28;10139663;-94
2023/08/11 01:36:22;;;;;;;5.88;3.55;;;;;;;;;;2081889;28;20304;-94
2023/08/11 01:37:22;;;;;;;4.90;4.25;;;;;;;;;;2089600;28;20028;-94
2023/08/11 01:38:23;;;;;;;4.10;3.60;;;;;;;;;;2073403;28;20030;-93
2023/08/11 01:39:23;;;;;;;4.68;3.83;;;;;;;;;;2073093;28;20029;-94
2023/08/11 01:40:24;;;;;;;4.80;4.32;;;;;;;;;;2073173;28;20514;-93
2023/08/11 01:41:24;;;;;;;5.10;3.80;;;;;;;;;;2072994;28;20030;-94
2023/08/11 01:42:25;;;;;;;5.32;4.50;;;;;;;;;;2081563;28;20578;-94
2023/08/11 01:43:28;;;;;;;6.75;4.07;;;;;;;;;;2094438;28;20025;-94
2023/08/11 01:44:29;;;;;;;5.38;3.92;;;;;;;;;;2086641;28;20029;-93
2023/08/11 01:45:30;;;;;;;4.72;4.00;;;;;;;;;;2082159;28;20469;-94
2023/08/11 01:46:31;;;;;;;4.93;4.07;;;;;;;;;;2081687;28;20033;-93
2023/08/11 01:47:32;;;;;;;5.13;4.57;;;;;;;;;;2081651;28;20040;-93
2023/08/11 01:48:33;;;;;;;5.10;4.03;;;;;;;;;;2081602;28;20075;-93
2023/08/11 01:49:34;;;;;;;4.72;4.15;;;;;;;;;;2089972;28;20028;-94
2023/08/11 01:50:34;;;;;;;5.30;4.20;;;;;;;;;;2089882;28;20033;-94
2023/08/11 01:51:38;;;;;;;4.75;4.00;;;;;;;;;;2089796;28;20028;-94
2023/08/11 01:52:41;;;;;;;4.47;4.07;;;;;;;;;;2087198;28;20025;-96
2023/08/11 01:53:50;;;;;;;9.60;4.78;;;;;;;;;;2090235;28;20025;-96
2023/08/11 01:54:52;;;;;;;5.20;4.32;;;;;;;;;;1747914;28;10003151;-96
2023/08/11 01:55:58;;;;;;;6.22;4.97;;;;;;;;;;2098705;28;20101;-96
2023/08/11 01:57:01;;;;;;;5.38;4.32;;;;;;;;;;2099233;28;20017;-96
2023/08/11 01:58:02;;;;;;;4.60;4.20;;;;;;;;;;2098683;28;20100;-96
2023/08/11 01:59:04;;;;;;;8.52;4.55;;;;;;;;;;2091471;28;20017;-96
2023/08/11 02:00:12;;;;;;;7.13;4.85;;;;;;;;;;2082745;28;20018;-96
2023/08/11 02:01:16;;;;;;;5.07;4.32;;;;;;;;;;2081895;28;20126;-96
2023/08/11 02:02:18;;;;;;;5.78;4.22;;;;;;;;;;2081761;28;20056;-94
2023/08/11 02:03:18;;;;;;;6.88;5.47;;;;;;;;;;2081350;28;20160;-94
2023/08/11 02:04:18;;;;;;;5.47;4.40;;;;;;;;;;2081562;28;20446;-94
2023/08/11 02:05:19;;;;;;;4.97;4.53;;;;;;;;;;2089438;28;20178;-94
2023/08/11 02:06:20;;;;;;;4.88;4.47;;;;;;;;;;2089530;28;20028;-94
2023/08/11 02:07:20;;;;;;;8.80;5.60;;;;;;;;;;2072229;28;20540;-95
2023/08/11 02:08:36;;;;;;;5.65;4.30;;;;;;;;;;2073196;28;20033;-94
2023/08/11 02:12:08;;;;;;;5.97;4.43;;;;;;;;;;2071234;28;20030;-96
2023/08/11 02:13:09;;;;;;;5.45;4.00;;;;;;;;;;2073419;28;20487;-94
2023/08/11 02:14:09;;;;;;;4.03;3.67;;;;;;;;;;2089529;28;20156;-93
2023/08/11 02:15:10;;;;;;;6.05;4.40;;;;;;;;;;2081348;28;20022;-94
2023/08/11 02:16:11;;;;;;;5.88;3.97;;;;;;;;;;2086963;28;20026;-94
2023/08/11 02:17:11;;;;;;;5.57;4.30;;;;;;;;;;2090680;28;20038;-93
2023/08/11 02:18:12;;;;;;;5.05;3.95;;;;;;;;;;2082819;28;20028;-94
2023/08/11 02:19:12;;;;;;;5.60;4.10;;;;;;;;;;2080259;28;20037;-94
2023/08/11 02:20:21;;;;;;;9.80;4.15;;;;;;;;;;2081395;28;20385;-94
2023/08/11 02:21:22;;;;;;;5.57;3.80;;;;;;;;;;2089184;28;20060;-95
2023/08/11 02:22:23;;;;;;;5.70;4.57;;;;;;;;;;2078206;28;20030;-92
2023/08/11 02:23:25;;;;;;;5.28;4.72;;;;;;;;;;2077636;28;20022;-93
2023/08/11 02:24:25;;;;;;;7.20;4.45;;;;;;;;;;2081299;28;20186;-93
2023/08/11 02:25:26;;;;;;;4.43;3.85;;;;;;;;;;2089643;28;20032;-94
2023/08/11 02:26:26;;;;;;;5.20;4.22;;;;;;;;;;2089382;28;20064;-94
2023/08/11 02:27:26;;;;;;;4.10;3.70;;;;;;;;;;2073117;28;20026;-94
2023/08/11 02:28:27;;;;;;;4.97;3.80;;;;;;;;;;2073087;28;20080;-95
2023/08/11 02:29:28;;;;;;;5.88;3.90;;;;;;;;;;2081173;28;20032;-94
2023/08/11 02:30:29;;;;;;;4.05;3.55;;;;;;;;;;2084271;28;20025;-93
2023/08/11 02:31:33;;;;;;;5.30;3.47;;;;;;;;;;2085734;28;20115;-93
2023/08/11 02:32:33;;;;;;;6.15;3.95;;;;;;;;;;2075475;28;20029;-94
2023/08/11 02:33:36;;;;;;;5.20;3.45;;;;;;;;;;2073136;28;20070;-94
2023/08/11 02:34:37;;;;;;;4.22;3.67;;;;;;;;;;2081412;28;20311;-94
2023/08/11 02:35:37;;;;;;;4.82;3.80;;;;;;;;;;2081897;28;20039;-94
2023/08/11 02:36:38;;;;;;;5.78;3.58;;;;;;;;;;2089447;28;20033;-94
2023/08/11 02:37:39;;;;;;;3.90;3.53;;;;;;;;;;2081109;28;20025;-94
2023/08/11 02:38:40;;;;;;;4.32;3.60;;;;;;;;;;2081107;28;20113;-93
2023/08/11 02:39:40;;;;;;;3.85;3.13;;;;;;;;;;2081289;28;20063;-94
2023/08/11 02:40:40;;;;;;;4.60;3.35;;;;;;;;;;2072861;28;20529;-93
2023/08/11 02:43:58;;;;;;;3.53;3.20;;;;;;;;;;2083654;28;20448;-93
2023/08/11 02:44:58;;;;;;;4.07;3.67;;;;;;;;;;2081542;28;20044;-93
2023/08/11 02:45:58;;;;;;;4.05;3.15;;;;;;;;;;2089895;28;20041;-94
2023/08/11 02:47:00;;;;;;;3.65;3.30;;;;;;;;;;2089595;28;20094;-93
2023/08/11 02:48:01;;;;;;;4.07;3.35;;;;;;;;;;2073300;28;20026;-93
2023/08/11 02:49:01;;;;;;;7.18;3.28;;;;;;;;;;2081273;28;20024;-93
2023/08/11 02:50:04;;;;;;;5.93;3.28;;;;;;;;;;2089122;28;20021;-94
2023/08/11 02:51:04;;;;;;;3.60;3.30;;;;;;;;;;2088924;28;20036;-93
2023/08/11 02:52:08;;;;;;;4.35;3.58;;;;;;;;;;2072556;28;20112;-93
2023/08/11 02:53:09;;;;;;;4.60;2.83;;;;;;;;;;2073258;28;20034;-94
2023/08/11 02:54:11;;;;;;;4.07;3.03;;;;;;;;;;2072864;28;20029;-93
2023/08/11 02:55:11;;;;;;;3.25;2.95;;;;;;;;;;2072819;28;20409;-93
2023/08/11 02:56:15;;;;;;;4.97;3.42;;;;;;;;;;2072529;28;20025;-93
2023/08/11 02:57:15;;;;;;;3.80;3.30;;;;;;;;;;2081144;28;20482;-92
2023/08/11 02:58:16;;;;;;;3.55;3.17;;;;;;;;;;2089136;28;20032;-93
2023/08/11 02:59:17;;;;;;;5.40;3.05;;;;;;;;;;2075271;28;20493;-92
2023/08/11 03:00:18;;;;;;;5.03;2.85;;;;;;;;;;2080821;28;20025;-92
2023/08/11 03:01:18;;;;;;;4.35;3.10;;;;;;;;;;2085029;28;20420;-94
2023/08/11 03:02:19;;;;;;;3.88;3.03;;;;;;;;;;2080919;28;20029;-94
2023/08/11 03:03:19;;;;;;;6.03;3.10;;;;;;;;;;2080763;28;20035;-92
2023/08/11 03:04:20;;;;;;;4.50;3.00;;;;;;;;;;2089094;28;20182;-93
2023/08/11 03:05:20;;;;;;;4.72;3.05;;;;;;;;;;2088880;28;20111;-93
2023/08/11 03:06:22;;;;;;;3.90;2.88;;;;;;;;;;2080879;28;20032;-92
2023/08/11 03:07:23;;;;;;;5.15;2.58;;;;;;;;;;2080844;28;20471;-92
2023/08/11 03:08:23;;;;;;;6.68;3.70;;;;;;;;;;2088762;28;20123;-92
2023/08/11 03:09:24;;;;;;;3.25;2.80;;;;;;;;;;2080537;28;20091;-93
2023/08/11 03:10:24;;;;;;;3.03;2.53;;;;;;;;;;2072537;28;20036;-95
2023/08/11 03:11:42;;;;;;;5.00;3.03;;;;;;;;;;2080531;28;20040;-94
2023/08/11 03:12:43;;;;;;;3.97;3.00;;;;;;;;;;2080794;28;20044;-93
2023/08/11 03:13:43;;;;;;;3.67;3.10;;;;;;;;;;2072949;28;20509;-93
2023/08/11 03:14:44;;;;;;;5.88;3.10;;;;;;;;;;2072966;28;20072;-93
2023/08/11 03:15:44;;;;;;;3.42;2.63;;;;;;;;;;2072715;28;20113;-92
2023/08/11 03:16:46;;;;;;;3.25;2.95;;;;;;;;;;2072398;28;20081;-93
2023/08/11 03:17:46;;;;;;;3.72;2.95;;;;;;;;;;2076071;28;20022;-92
2023/08/11 03:18:46;;;;;;;4.63;3.70;;;;;;;;;;2077523;28;20029;-93
2023/08/11 03:19:47;;;;;;;3.58;2.97;;;;;;;;;;2074459;28;20089;-95
2023/08/11 03:20:47;;;;;;;3.80;3.17;;;;;;;;;;2073214;28;20511;-94
2023/08/11 03:21:49;;;;;;;3.92;2.90;;;;;;;;;;2083372;28;20041;-96
2023/08/11 03:22:54;;;;;;;6.07;3.25;;;;;;;;;;2072207;28;20038;-96
2023/08/11 03:23:57;;;;;;;4.18;2.80;;;;;;;;;;2073266;28;20061;-96
2023/08/11 03:25:11;;;;;;;4.05;3.30;;;;;;;;;;2080309;28;20017;-96
2023/08/11 03:26:22;;;;;;;3.22;2.92;;;;;;;;;;2090339;28;20112;-96
2023/08/11 03:27:25;;;;;;;7.03;4.20;;;;;;;;;;2098020;28;20116;-96
2023/08/11 03:28:26;;;;;;;5.13;3.88;;;;;;;;;;2095235;28;20074;-96
2023/08/11 03:29:35;;;;;;;6.60;4.00;;;;;;;;;;2098904;28;20021;-96
2023/08/11 03:30:35;;;;;;;5.53;4.13;;;;;;;;;;2088561;28;20086;-94
2023/08/11 03:31:36;;;;;;;5.10;4.07;;;;;;;;;;2082486;28;20108;-93
2023/08/11 03:32:40;;;;;;;4.40;3.53;;;;;;;;;;2082591;28;20029;-94
2023/08/11 03:33:40;;;;;;;4.68;3.60;;;;;;;;;;2080994;28;20437;-94
2023/08/11 03:34:41;;;;;;;6.80;4.05;;;;;;;;;;2088865;28;20040;-94
2023/08/11 03:35:42;;;;;;;6.10;4.20;;;;;;;;;;2080941;28;20514;-94
2023/08/11 03:36:44;;;;;;;5.05;3.80;;;;;;;;;;2080532;28;20123;-94
2023/08/11 03:37:44;;;;;;;6.03;4.20;;;;;;;;;;2080869;28;20045;-93
2023/08/11 03:38:50;;;;;;;5.28;3.78;;;;;;;;;;2081294;28;20041;-93
2023/08/11 03:39:51;;;;;;;7.97;4.00;;;;;;;;;;2080463;28;20065;-94
2023/08/11 03:40:52;;;;;;;3.90;3.53;;;;;;;;;;2080493;28;20036;-94
2023/08/11 03:41:52;;;;;;;4.15;3.75;;;;;;;;;;2088565;28;20127;-94
2023/08/11 03:42:53;;;;;;;4.68;3.55;;;;;;;;;;2088613;28;20112;-94
2023/08/11 03:43:53;;;;;;;3.65;3.22;;;;;;;;;;2088531;28;20083;-94
2023/08/11 03:44:54;;;;;;;3.42;3.13;;;;;;;;;;2072137;28;20033;-94
2023/08/11 03:45:54;;;;;;;3.55;3.13;;;;;;;;;;2088597;28;20512;-93
2023/08/11 03:46:55;;;;;;;4.35;3.45;;;;;;;;;;2088392;28;20036;-93
2023/08/11 03:47:56;;;;;;;5.07;3.17;;;;;;;;;;2088516;28;20025;-94
2023/08/11 03:48:57;;;;;;;4.00;3.38;;;;;;;;;;2080415;28;20034;-94
2023/08/11 03:49:57;;;;;;;4.72;2.95;;;;;;;;;;2080590;28;20029;-92
2023/08/11 03:51:01;;;;;;;5.50;3.35;;;;;;;;;;2088766;28;20029;-94
2023/08/11 03:52:03;;;;;;;6.22;3.30;;;;;;;;;;2080158;28;20429;-95
2023/08/11 03:53:04;;;;;;;5.30;3.60;;;;;;;;;;2072712;28;20050;-96
2023/08/11 03:54:05;;;;;;;4.90;3.50;;;;;;;;;;2081021;28;20021;-94
2023/08/11 03:55:09;;;;;;;3.97;3.03;;;;;;;;;;2088505;28;20028;-95
2023/08/11 03:56:09;;;;;;;4.90;3.33;;;;;;;;;;2072954;28;20500;-95
2023/08/11 03:57:10;;;;;;;6.38;3.33;;;;;;;;;;2080620;28;20025;-95
2023/08/11 03:58:12;;;;;;;5.00;4.15;;;;;;;;;;2080607;28;20363;-93
2023/08/11 03:59:13;;;;;;;5.57;3.50;;;;;;;;;;2072897;28;20179;-93
2023/08/11 04:00:14;;;;;;;3.85;3.42;;;;;;;;;;2072507;28;20025;-93
2023/08/11 04:01:15;;;;;;;7.90;4.35;;;;;;;;;;2081050;28;20033;-95
2023/08/11 04:02:16;;;;;;;4.38;3.70;;;;;;;;;;2072960;28;20029;-94
2023/08/11 04:03:16;;;;;;;3.83;3.35;;;;;;;;;;2072723;28;20052;-95
2023/08/11 04:04:17;;;;;;;5.32;3.60;;;;;;;;;;2080968;28;20591;-94
2023/08/11 04:05:17;;;;;;;3.65;3.25;;;;;;;;;;2093412;28;20441;-94
2023/08/11 04:06:18;;;;;;;4.93;3.33;;;;;;;;;;2094719;28;20083;-93
2023/08/11 04:07:18;;;;;;;3.80;3.17;;;;;;;;;;2091100;28;20086;-93
2023/08/11 04:08:20;;;;;;;3.55;3.08;;;;;;;;;;2089347;28;20061;-95
2023/08/11 04:09:20;;;;;;;6.57;4.32;;;;;;;;;;2088998;28;20024;-92
2023/08/11 04:10:21;;;;;;;4.53;3.67;;;;;;;;;;2097773;28;20008;-93
2023/08/11 04:11:22;;;;;;;3.75;2.95;;;;;;;;;;2084044;28;20061;-93
2023/08/11 04:12:22;;;;;;;9.48;4.88;;;;;;;;;;2089166;28;20021;-92
2023/08/11 04:13:22;;;;;;;4.15;3.00;;;;;;;;;;2089093;28;20029;-93
2023/08/11 04:14:24;;;;;;;3.05;2.72;;;;;;;;;;2086114;28;20523;-94
2023/08/11 04:15:24;;;;;;;5.63;3.35;;;;;;;;;;2080894;28;20064;-92
2023/08/11 04:16:25;;;;;;;3.10;2.80;;;;;;;;;;2089155;28;20464;-93
2023/08/11 04:17:26;;;;;;;3.75;2.72;;;;;;;;;;2088984;28;20468;-92
2023/08/11 04:18:27;;;;;;;3.75;2.90;;;;;;;;;;2089289;28;20040;-94
2023/08/11 04:19:27;;;;;;;4.43;3.17;;;;;;;;;;2097124;28;20028;-93
2023/08/11 04:20:28;;;;;;;4.88;3.10;;;;;;;;;;2088841;28;20044;-93
2023/08/11 04:21:29;;;;;;;3.40;3.08;;;;;;;;;;2080780;28;20097;-93
2023/08/11 04:22:29;;;;;;;3.30;3.00;;;;;;;;;;2088844;28;20083;-93
2023/08/11 04:23:30;;;;;;;4.30;3.22;;;;;;;;;;2088744;28;20029;-93
2023/08/11 04:24:31;;;;;;;4.05;3.13;;;;;;;;;;2080281;28;20072;-94
2023/08/11 04:25:32;;;;;;;3.83;2.90;;;;;;;;;;2088999;28;20108;-93
2023/08/11 04:26:35;;;;;;;3.53;3.22;;;;;;;;;;2092516;28;20032;-93
2023/08/11 04:27:39;;;;;;;4.95;3.55;;;;;;;;;;2090013;28;20088;-92
2023/08/11 04:28:43;;;;;;;6.03;3.45;;;;;;;;;;2097387;28;20032;-93
2023/08/11 04:29:43;;;;;;;3.20;2.90;;;;;;;;;;2096607;28;20029;-93
2023/08/11 04:30:44;;;;;;;4.80;3.03;;;;;;;;;;2089335;28;20022;-91
2023/08/11 04:31:45;;;;;;;3.60;2.97;;;;;;;;;;2097884;28;20052;-93
2023/08/11 04:32:45;;;;;;;4.57;2.85;;;;;;;;;;2087821;28;20052;-93
2023/08/11 04:33:45;;;;;;;3.42;2.65;;;;;;;;;;2085500;28;20045;-93
2023/08/11 04:34:46;;;;;;;3.45;2.83;;;;;;;;;;2081014;28;20408;-94
2023/08/11 04:35:48;;;;;;;4.63;3.40;;;;;;;;;;2081390;28;20153;-95
2023/08/11 04:36:48;;;;;;;5.72;3.90;;;;;;;;;;2089236;28;20025;-94
2023/08/11 04:37:49;;;;;;;5.10;4.05;;;;;;;;;;2089000;28;20595;-93
2023/08/11 04:38:50;;;;;;;3.22;2.90;;;;;;;;;;2093110;28;20027;-94
2023/08/11 04:39:50;;;;;;;5.32;4.40;;;;;;;;;;2098709;28;20025;-94
2023/08/11 04:40:52;;;;;;;3.55;3.10;;;;;;;;;;2098686;28;20122;-93
2023/08/11 04:41:54;;;;;;;3.42;3.13;;;;;;;;;;2097739;28;20026;-94
2023/08/11 04:42:55;;;;;;;3.42;3.13;;;;;;;;;;2082566;28;20089;-95
2023/08/11 04:43:56;;;;;;;4.88;2.80;;;;;;;;;;2089431;28;20480;-95
2023/08/11 04:44:56;;;;;;;5.93;3.20;;;;;;;;;;2089037;28;20037;-94
2023/08/11 04:45:57;;;;;;;5.78;3.10;;;;;;;;;;2080629;28;20460;-93
2023/08/11 04:46:57;;;;;;;3.30;3.00;;;;;;;;;;2079802;28;20440;-93
2023/08/11 04:47:58;;;;;;;4.00;2.97;;;;;;;;;;2079989;28;20032;-93
2023/08/11 04:48:58;;;;;;;4.47;3.42;;;;;;;;;;2088885;28;20028;-93
2023/08/11 04:49:59;;;;;;;3.55;2.67;;;;;;;;;;2096683;28;20445;-93
2023/08/11 04:51:10;;;;;;;3.70;3.10;;;;;;;;;;2093789;28;20151;-96
2023/08/11 04:52:58;;;;;;;3.65;2.70;;;;;;;;;;2089557;28;20100;-96
2023/08/11 04:54:02;;;;;;;5.03;2.50;;;;;;;;;;2102712;28;20032;-93
2023/08/11 04:55:04;;;;;;;5.57;2.58;;;;;;;;;;2095755;28;20028;-94
2023/08/11 04:56:04;;;;;;;4.18;2.40;;;;;;;;;;2095408;28;20021;-93
2023/08/11 04:57:05;;;;;;;2.97;2.40;;;;;;;;;;2094554;28;20072;-93
2023/08/11 04:58:05;;;;;;;2.42;2.22;;;;;;;;;;2095215;28;20076;-92
2023/08/11 04:59:06;;;;;;;2.95;2.47;;;;;;;;;;2103327;28;20448;-92
2023/08/11 05:00:13;;;;;;;3.58;2.15;;;;;;;;;;2102802;28;20073;-92
2023/08/11 05:01:14;;;;;;;2.80;2.15;;;;;;;;;;2089727;28;20043;-92
2023/08/11 05:02:15;;;;;;;3.30;2.40;;;;;;;;;;2090328;28;20025;-95
2023/08/11 05:03:15;;;;;;;3.30;2.08;;;;;;;;;;2089795;28;20447;-95
2023/08/11 05:04:16;;;;;;;3.78;2.40;;;;;;;;;;2090458;28;20037;-95
2023/08/11 05:05:17;;;;;;;4.97;2.22;;;;;;;;;;2091084;28;20029;-94
2023/08/11 05:06:18;;;;;;;2.42;2.00;;;;;;;;;;2081825;28;20026;-93
2023/08/11 05:07:18;;;;;;;2.45;1.75;;;;;;;;;;2090058;28;20440;-93
2023/08/11 05:08:19;;;;;;;1.88;1.75;;;;;;;;;;2098009;28;20103;-95
2023/08/11 05:09:19;;;;;;;1.73;1.63;;;;;;;;;;2090184;28;20036;-94
2023/08/11 05:10:20;;;;;;;4.85;1.95;;;;;;;;;;2091217;28;20029;-92
2023/08/11 05:11:20;;;;;;;2.70;1.90;;;;;;;;;;2090584;28;20048;-94
2023/08/11 05:12:21;;;;;;;3.85;2.13;;;;;;;;;;2098562;28;20032;-92
2023/08/11 05:13:21;;;;;;;3.88;2.25;;;;;;;;;;2091008;28;20067;-94
2023/08/11 05:14:24;;;;;;;4.45;1.80;;;;;;;;;;2090660;28;20120;-95
2023/08/11 05:15:25;;;;;;;2.67;1.83;;;;;;;;;;2089899;28;20408;-93
2023/08/11 05:16:25;;;;;;;2.15;1.80;;;;;;;;;;2089733;28;20029;-94
2023/08/11 05:17:26;;;;;;;2.50;1.88;;;;;;;;;;2098732;28;20129;-91
2023/08/11 05:18:26;;;;;;;1.75;1.63;;;;;;;;;;2089591;28;20568;-91
2023/08/11 05:19:27;;;;;;;1.45;1.35;;;;;;;;;;2089847;28;20080;-94
2023/08/11 05:20:27;;;;;;;3.28;2.30;;;;;;;;;;2090356;28;20048;-94
2023/08/11 05:21:28;;;;;;;2.72;1.58;;;;;;;;;;2082061;28;20136;-92
2023/08/11 05:22:29;;;;;;;2.45;1.75;;;;;;;;;;2082279;28;20033;-92
2023/08/11 05:23:29;;;;;;;1.92;1.70;;;;;;;;;;2081971;28;20045;-93
2023/08/11 05:24:31;;;;;;;2.97;1.90;;;;;;;;;;2091747;28;20048;-95
2023/08/11 05:25:32;;;;;;;3.45;1.98;;;;;;;;;;2099445;28;20025;-92
2023/08/11 05:26:32;;;;;;;4.10;1.88;;;;;;;;;;2099911;28;20545;-94
2023/08/11 05:27:33;;;;;;;2.00;1.80;;;;;;;;;;1728731;28;10343930;-92
2023/08/11 05:28:33;;;;;;;2.03;1.60;;;;;;;;;;2082075;28;20535;-93
2023/08/11 05:29:34;;;;;;;3.47;1.83;;;;;;;;;;2089672;28;20029;-93
2023/08/11 05:30:34;;;;;;;4.75;1.88;;;;;;;;;;2098765;28;20404;-94
2023/08/11 05:31:35;;;;;;;2.30;1.70;;;;;;;;;;2091716;28;20024;-95
2023/08/11 05:32:38;;;;;;;3.58;1.67;;;;;;;;;;2082937;28;20212;-93
2023/08/11 05:33:41;;;;;;;2.20;1.70;;;;;;;;;;2083518;28;20068;-95
2023/08/11 05:34:41;;;;;;;1.90;1.52;;;;;;;;;;2091101;28;20480;-94
2023/08/11 05:35:42;;;;;;;2.10;1.90;;;;;;;;;;2093134;28;20041;-91
2023/08/11 05:36:43;;;;;;;1.67;1.58;;;;;;;;;;2090713;28;20036;-94
2023/08/11 05:37:43;;;;;;;2.30;1.70;;;;;;;;;;2094639;28;20051;-93
2023/08/11 05:38:45;;;;;;;3.15;2.00;;;;;;;;;;2106213;28;20499;-94
2023/08/11 05:39:46;;;;;;;5.22;1.60;;;;;;;;;;2097674;28;20059;-93
2023/08/11 05:40:46;;;;;;;1.92;1.77;;;;;;;;;;2091748;28;20108;-93
2023/08/11 05:41:49;;;;;;;1.75;1.63;;;;;;;;;;2095668;28;20041;-94
2023/08/11 05:42:49;;;;;;;1.70;1.60;;;;;;;;;;2092159;28;20029;-94
2023/08/11 05:43:50;;;;;;;2.45;1.70;;;;;;;;;;2081951;28;20037;-91
2023/08/11 05:44:52;;;;;;;1.98;1.75;;;;;;;;;;2081515;28;20543;-94
2023/08/11 05:45:53;;;;;;;3.70;2.08;;;;;;;;;;2089828;28;20025;-93
2023/08/11 05:46:53;;;;;;;3.88;1.98;;;;;;;;;;2097929;28;20136;-92
2023/08/11 05:47:54;;;;;;;3.08;1.90;;;;;;;;;;2090058;28;20056;-93
2023/08/11 05:48:57;;;;;;;3.15;1.80;;;;;;;;;;2081887;28;20021;-94
2023/08/11 05:49:57;;;;;;;2.58;1.95;;;;;;;;;;2090031;28;20032;-92
2023/08/11 05:50:58;;;;;;;2.42;1.75;;;;;;;;;;2089171;28;20235;-93
2023/08/11 05:51:58;;;;;;;2.58;1.65;;;;;;;;;;2081747;28;20167;-93
2023/08/11 05:53:00;;;;;;;1.75;1.65;;;;;;;;;;2081768;28;20190;-93
2023/08/11 05:54:00;;;;;;;4.45;1.77;;;;;;;;;;2082524;28;20129;-94
2023/08/11 05:56:48;;;;;;;3.17;1.73;;;;;;;;;;2098431;28;20032;-93
2023/08/11 05:58:28;;;;;;;2.63;1.95;;;;;;;;;;2091054;28;20400;-93
2023/08/11 05:59:28;;;;;;;2.05;1.80;;;;;;;;;;2087024;28;20051;-93
2023/08/11 06:00:29;;;;;;;1.52;1.42;;;;;;;;;;2081985;28;20111;-96
2023/08/11 06:01:53;;;;;;;1.70;1.60;;;;;;;;;;2081652;28;20032;-94
2023/08/11 06:02:54;;;;;;;1.80;1.48;;;;;;;;;;2093585;28;20036;-93
2023/08/11 06:04:20;;;;;;;5.30;1.60;;;;;;;;;;2089954;28;20024;-92
2023/08/11 06:05:23;;;;;;;1.95;1.40;;;;;;;;;;2093602;28;20025;-94
2023/08/11 06:06:24;;;;;;;1.92;1.63;;;;;;;;;;2091271;28;20029;-93
2023/08/11 06:07:25;;;;;;;3.88;1.88;;;;;;;;;;2090563;28;20575;-94
2023/08/11 06:10:26;;;;;;;3.78;1.85;;;;;;;;;;2073421;28;20037;-95
2023/08/11 06:11:27;;;;;;;2.70;2.22;;;;;;;;;;2073795;28;20532;-94
2023/08/11 06:12:27;;;;;;;2.85;1.50;;;;;;;;;;2088485;28;20140;-94
2023/08/11 06:13:27;;;;;;;3.10;2.00;;;;;;;;;;2093353;28;20051;-93
2023/08/11 06:14:37;;;;;;;2.30;1.83;;;;;;;;;;2093021;28;20152;-92
2023/08/11 06:15:40;;;;;;;3.13;1.58;;;;;;;;;;2091727;28;20044;-95
2023/08/11 06:16:40;;;;;;;2.53;1.58;;;;;;;;;;2081313;28;20102;-93
2023/08/11 06:17:41;;;;;;;4.53;1.85;;;;;;;;;;2089087;28;20029;-93
2023/08/11 06:29:01;;;;;;;5.15;2.50;;;;;;;;;;2061989;28;20046;-93
2023/08/11 06:30:04;;;;;;;1.77;1.50;;;;;;;;;;2055819;28;20456;-93
2023/08/11 06:31:04;;;;;;;3.20;1.70;;;;;;;;;;2047808;29;20087;-95
2023/08/11 06:32:05;;;;;;;2.85;1.60;;;;;;;;;;2048180;29;20038;-94
2023/08/11 06:33:05;;;;;;;3.50;1.60;;;;;;;;;;2048243;29;20471;-93
2023/08/11 06:35:58;;;;;;;1.70;1.60;;;;;;;;;;2080215;28;20358;-94
2023/08/11 06:36:59;;;;;;;2.15;1.48;;;;;;;;;;2072897;28;20039;-94
2023/08/11 06:37:59;;;;;;;2.47;1.63;;;;;;;;;;2083762;28;20394;-94
2023/08/11 06:39:00;;;;;;;3.85;1.45;;;;;;;;;;2097489;28;20051;-94
2023/08/11 06:40:00;;;;;;;4.85;1.75;;;;;;;;;;2097195;28;20349;-94